createdAt,value
2022-12-20T00:01:23.166Z,25.90
2022-12-20T00:06:25.213Z,28.45
2022-12-20T00:11:27.568Z,28.33
2022-12-20T00:16:29.747Z,26.85
2022-12-20T00:21:33.405Z,27.35
2022-12-20T00:26:35.775Z,29.02
2022-12-20T00:31:37.361Z,29.23
2022-12-20T00:36:40.141Z,27.85
2022-12-20T00:41:41.948Z,27.75
2022-12-20T00:46:43.368Z,26.98
2022-12-20T00:51:44.841Z,26.98
2022-12-20T00:56:46.227Z,27.05
2022-12-20T01:01:47.869Z,28.02
2022-12-20T01:06:49.541Z,27.75
2022-12-20T01:11:50.918Z,28.40
2022-12-20T01:16:52.384Z,27.15
2022-12-20T01:21:53.870Z,28.02
2022-12-20T01:26:55.231Z,27.27
2022-12-20T01:31:56.585Z,28.95
2022-12-20T01:36:57.962Z,27.35
2022-12-20T01:41:59.348Z,27.20
2022-12-20T01:47:00.838Z,27.20
2022-12-20T01:52:13.588Z,27.92
2022-12-20T01:57:20.792Z,27.85
2022-12-20T02:02:22.901Z,28.38
2022-12-20T02:07:29.069Z,26.23
2022-12-20T02:12:38.047Z,27.30
2022-12-20T02:17:47.051Z,26.65
2022-12-20T02:23:06.920Z,31.35
2022-12-20T02:28:30.573Z,28.52
2022-12-20T02:33:31.969Z,26.60
2022-12-20T02:38:35.968Z,26.35
2022-12-20T02:43:59.723Z,26.70
2022-12-20T02:49:08.121Z,26.73
2022-12-20T02:54:09.563Z,29.55
2022-12-20T02:59:39.660Z,26.48
2022-12-20T03:04:42.269Z,25.08
2022-12-20T03:09:45.506Z,25.45
2022-12-20T03:14:46.873Z,25.73
2022-12-20T03:19:48.377Z,25.17
2022-12-20T03:24:50.085Z,24.55
2022-12-20T03:29:51.490Z,25.45
2022-12-20T03:34:52.857Z,25.27
2022-12-20T03:39:54.192Z,24.95
2022-12-20T03:44:55.593Z,24.52
2022-12-20T03:49:57.346Z,25.40
2022-12-20T03:54:58.735Z,24.00
2022-12-20T04:00:00.161Z,24.13
2022-12-20T04:05:01.595Z,23.92
2022-12-20T04:10:03.371Z,24.13
2022-12-20T04:15:05.159Z,24.20
2022-12-20T04:20:18.953Z,25.52
2022-12-20T04:25:21.238Z,24.05
2022-12-20T04:30:22.711Z,25.67
2022-12-20T04:35:24.063Z,24.38
2022-12-20T04:40:25.433Z,25.83
2022-12-20T04:45:26.869Z,22.92
2022-12-20T04:50:28.284Z,26.70
2022-12-20T04:55:29.710Z,24.73
2022-12-20T05:00:31.340Z,23.05
2022-12-20T05:05:32.843Z,24.92
2022-12-20T05:10:34.224Z,25.83
2022-12-20T05:15:35.691Z,24.58
2022-12-20T05:20:37.292Z,23.15
2022-12-20T05:26:10.246Z,24.17
2022-12-20T05:31:11.717Z,25.60
2022-12-20T05:36:13.201Z,25.67
2022-12-20T05:41:14.543Z,24.65
2022-12-20T05:46:15.909Z,24.80
2022-12-20T05:51:17.598Z,23.83
2022-12-20T05:56:18.991Z,23.20
2022-12-20T06:01:20.412Z,23.77
2022-12-20T06:06:21.890Z,24.85
2022-12-20T06:11:29.589Z,24.67
2022-12-20T06:16:31.786Z,24.70
2022-12-20T06:21:33.496Z,23.33
2022-12-20T06:26:37.804Z,25.27
2022-12-20T06:31:39.383Z,25.38
2022-12-20T06:36:40.764Z,25.63
2022-12-20T06:41:42.136Z,24.65
2022-12-20T06:46:43.576Z,25.10
2022-12-20T06:51:45.016Z,24.10
2022-12-20T06:56:46.402Z,24.15
2022-12-20T07:01:47.930Z,23.90
2022-12-20T07:06:49.432Z,24.52
2022-12-20T07:11:50.814Z,24.80
2022-12-20T07:16:52.264Z,24.83
2022-12-20T07:21:53.668Z,23.63
2022-12-20T07:26:55.127Z,24.02
2022-12-20T07:31:56.609Z,24.85
2022-12-20T07:36:58.847Z,24.38
2022-12-20T07:42:00.437Z,25.92
2022-12-20T07:47:02.651Z,25.08
2022-12-20T07:52:05.767Z,25.10
2022-12-20T07:57:16.102Z,24.60
2022-12-20T08:02:25.922Z,27.40
2022-12-20T08:07:29.797Z,27.90
2022-12-20T08:12:31.342Z,25.73
2022-12-20T08:17:32.766Z,24.00
2022-12-20T08:22:34.681Z,23.08
2022-12-20T08:27:36.111Z,23.35
2022-12-20T08:32:38.139Z,28.92
2022-12-20T08:37:39.485Z,29.33
2022-12-20T08:42:40.866Z,32.40
2022-12-20T08:47:42.243Z,26.80
2022-12-20T08:52:43.607Z,25.02
2022-12-20T08:57:44.964Z,27.35
2022-12-20T09:02:48.187Z,26.77
2022-12-20T09:07:49.721Z,26.25
2022-12-20T09:12:51.128Z,28.23
2022-12-20T09:17:52.489Z,28.50
2022-12-20T09:22:53.914Z,27.45
2022-12-20T09:27:56.489Z,25.30
2022-12-20T09:32:57.848Z,24.42
2022-12-20T09:38:10.886Z,26.38
2022-12-20T09:43:13.416Z,22.02
2022-12-20T09:48:19.932Z,25.00
2022-12-20T09:53:59.127Z,27.58
2022-12-20T09:59:06.788Z,26.38
2022-12-20T10:09:36.894Z,25.08
2022-12-20T10:14:50.317Z,26.10
2022-12-20T10:20:13.380Z,27.08
2022-12-20T10:25:22.837Z,25.90
2022-12-20T10:30:27.083Z,25.98
2022-12-20T10:35:41.003Z,26.77
2022-12-20T10:41:20.200Z,26.38
2022-12-20T10:46:10.563Z,25.40
2022-12-20T10:51:16.525Z,21.83
2022-12-20T10:56:22.756Z,20.85
2022-12-20T11:01:28.758Z,21.85
2022-12-20T11:06:39.052Z,21.27
2022-12-20T11:11:57.690Z,20.25
2022-12-20T11:17:04.026Z,23.10
2022-12-20T11:22:29.795Z,20.98
2022-12-20T11:27:42.496Z,22.27
2022-12-20T11:33:05.117Z,22.90
2022-12-20T11:38:17.423Z,20.98
2022-12-20T11:44:22.769Z,22.15
2022-12-20T11:54:32.738Z,22.45
2022-12-20T11:59:57.592Z,23.45
2022-12-20T12:05:06.193Z,24.65
2022-12-20T12:10:16.664Z,23.08
2022-12-20T12:15:31.797Z,22.17
2022-12-20T12:20:48.329Z,22.50
2022-12-20T12:25:49.954Z,23.95
2022-12-20T12:31:03.664Z,23.08
2022-12-20T12:36:38.753Z,23.58
2022-12-20T12:41:52.167Z,27.95
2022-12-20T12:47:01.424Z,26.80
2022-12-20T12:52:05.245Z,26.63
2022-12-20T12:57:15.771Z,23.63
2022-12-20T13:02:17.755Z,22.25
2022-12-20T13:07:39.949Z,26.58
2022-12-20T13:12:41.270Z,27.05
2022-12-20T13:17:51.936Z,24.42
2022-12-20T13:23:07.309Z,29.27
2022-12-20T13:28:23.858Z,24.58
2022-12-20T13:33:46.670Z,24.25
2022-12-20T13:38:48.005Z,24.52
2022-12-20T13:43:51.600Z,23.80
2022-12-20T13:49:03.015Z,25.05
2022-12-20T13:54:07.010Z,22.95
2022-12-20T13:59:23.480Z,24.50
2022-12-20T14:04:28.096Z,23.10
2022-12-20T14:09:37.835Z,25.98
2022-12-20T14:14:50.254Z,25.40
2022-12-20T14:20:06.957Z,28.23
2022-12-20T14:25:09.461Z,26.33
2022-12-20T14:30:27.154Z,24.65
2022-12-20T14:35:28.928Z,23.75
2022-12-20T14:40:30.420Z,24.23
2022-12-20T14:45:31.740Z,26.40
2022-12-20T14:50:35.888Z,25.88
2022-12-20T14:55:44.304Z,28.73
2022-12-20T15:00:57.636Z,28.48
2022-12-20T15:06:00.481Z,29.10
2022-12-20T15:11:17.866Z,27.75
2022-12-20T15:16:26.732Z,31.10
2022-12-20T15:21:42.696Z,31.80
2022-12-20T15:26:44.184Z,31.50
2022-12-20T15:31:47.368Z,29.17
2022-12-20T15:36:48.796Z,26.17
2022-12-20T15:41:50.429Z,25.17
2022-12-20T15:46:52.261Z,25.00
2022-12-20T15:51:55.333Z,25.05
2022-12-20T15:56:58.823Z,29.33
2022-12-20T16:02:00.654Z,34.90
2022-12-20T16:07:03.577Z,34.33
2022-12-20T16:12:16.083Z,33.25
2022-12-20T16:17:17.567Z,32.35
2022-12-20T16:22:21.971Z,31.77
2022-12-20T16:27:23.457Z,33.55
2022-12-20T16:32:24.829Z,33.13
2022-12-20T16:37:26.202Z,33.33
2022-12-20T16:42:27.585Z,34.13
2022-12-20T16:47:28.945Z,38.20
2022-12-20T16:52:30.527Z,33.70
2022-12-20T16:57:32.406Z,33.05
2022-12-20T17:02:35.010Z,34.80
2022-12-20T17:07:41.210Z,42.50
2022-12-20T17:12:43.119Z,35.80
2022-12-20T17:17:44.676Z,40.50
2022-12-20T17:22:49.658Z,30.75
2022-12-20T17:27:51.732Z,28.02
2022-12-20T17:32:53.829Z,28.70
2022-12-20T17:37:57.261Z,31.15
2022-12-20T17:42:58.632Z,33.80
2022-12-20T17:48:00.123Z,30.40
2022-12-20T17:53:01.589Z,42.80
2022-12-20T17:58:03.003Z,40.25
2022-12-20T18:03:04.540Z,33.92
2022-12-20T18:08:06.055Z,34.25
2022-12-20T18:13:07.430Z,36.47
2022-12-20T18:18:09.171Z,39.08
2022-12-20T18:23:10.537Z,40.25
2022-12-20T18:28:11.901Z,38.38
2022-12-20T18:33:13.270Z,39.10
2022-12-20T18:38:16.381Z,37.08
2022-12-20T18:43:17.759Z,35.50
2022-12-20T18:48:19.140Z,35.40
2022-12-20T18:53:20.592Z,43.95
2022-12-20T18:58:21.937Z,42.72
2022-12-20T19:03:23.328Z,42.33
2022-12-20T19:08:26.051Z,37.70
2022-12-20T19:13:27.404Z,33.65
2022-12-20T19:18:28.832Z,41.38
2022-12-20T19:23:30.189Z,35.33
2022-12-20T19:28:32.342Z,37.15
2022-12-20T19:33:37.274Z,40.10
2022-12-20T19:38:47.264Z,43.47
2022-12-20T19:43:50.426Z,40.33
2022-12-20T19:48:53.704Z,37.60
2022-12-20T19:53:56.661Z,35.30
2022-12-20T19:58:57.988Z,35.08
2022-12-20T20:04:00.390Z,37.00
2022-12-20T20:09:01.835Z,34.90
2022-12-20T20:14:03.912Z,33.30
2022-12-20T20:19:05.557Z,31.58
2022-12-20T20:24:08.685Z,31.17
2022-12-20T20:29:10.384Z,30.95
2022-12-20T20:34:12.340Z,35.70
2022-12-20T20:39:13.727Z,36.03
2022-12-20T20:44:15.121Z,45.03
2022-12-20T20:49:16.829Z,78.95
2022-12-20T20:54:18.181Z,52.35
2022-12-20T20:59:21.585Z,60.83
2022-12-20T21:04:22.975Z,44.28
2022-12-20T21:09:24.339Z,46.08
2022-12-20T21:14:43.791Z,46.30
2022-12-20T21:19:46.996Z,49.63
2022-12-20T21:24:48.539Z,35.05
2022-12-20T21:29:50.343Z,35.90
2022-12-20T21:34:51.734Z,38.58
2022-12-20T21:39:53.578Z,37.30
2022-12-20T21:44:54.911Z,37.80
2022-12-20T21:49:57.293Z,36.55
2022-12-20T21:54:58.656Z,30.67
2022-12-20T21:59:59.980Z,29.52
2022-12-20T22:05:01.338Z,32.88
2022-12-20T22:10:02.807Z,36.28
2022-12-20T22:15:04.539Z,31.98
2022-12-20T22:20:06.761Z,33.50
2022-12-20T22:25:08.552Z,34.63
2022-12-20T22:30:10.447Z,32.50
2022-12-20T22:35:11.868Z,33.35
2022-12-20T22:40:13.333Z,34.10
2022-12-20T22:45:14.944Z,34.40
2022-12-20T22:50:16.472Z,35.22
2022-12-20T22:55:18.105Z,31.25
2022-12-20T23:00:19.701Z,26.65
2022-12-20T23:05:21.081Z,28.67
2022-12-20T23:10:41.113Z,30.77
2022-12-20T23:15:42.614Z,30.35
2022-12-20T23:21:08.289Z,29.73
2022-12-20T23:26:14.794Z,28.80
2022-12-20T23:31:16.193Z,27.33
2022-12-20T23:36:17.591Z,26.25
2022-12-20T23:41:19.112Z,27.05
2022-12-20T23:46:22.126Z,25.83
2022-12-20T23:51:23.591Z,24.70
2022-12-20T23:56:25.211Z,25.95
